Observation data for Snyder on 06/15/2019      Previous  Date  Next       Current Mesonet Observations  Soil Data  Daily Summary Page  Observations in Plain Language
KSYS 150500Z 17011KT 25/16 A2985 RMK A01 T02500161  RH  061%=      5-min Rain = 0
KSYS 150505Z 18011KT 25/16 A2986 RMK A01 T02470162  RH  061%=      5-min Rain = 0
KSYS 150510Z 18010KT 25/16 A2986 RMK A01 T02480162  RH  062%=      5-min Rain = 0
KSYS 150515Z 18011G16KT 25/16 A2986 RMK A01 T02460162  RH  062%=      5-min Rain = 0
KSYS 150520Z 18012KT 25/16 A2986 RMK A01 T02460162  RH  063%=      5-min Rain = 0
KSYS 150525Z 17011KT 25/16 A2986 RMK A01 T02450163  RH  063%=      5-min Rain = 0
KSYS 150530Z 17012KT 24/16 A2986 RMK A01 T02440162  RH  063%=      5-min Rain = 0
KSYS 150535Z 18013G18KT 24/16 A2986 RMK A01 T02440162  RH  063%=      5-min Rain = 0
KSYS 150540Z 17014G19KT 24/16 A2985 RMK A01 T02440162  RH  063%=      5-min Rain = 0
KSYS 150545Z 18013G18KT 24/16 A2985 RMK A01 T02440162  RH  063%=      5-min Rain = 0
KSYS 150550Z 17013G19KT 24/16 A2985 RMK A01 T02430162  RH  063%=      5-min Rain = 0
KSYS 150555Z 17014G19KT 24/16 A2985 RMK A01 T02440162  RH  063%=      5-min Rain = 0
KSYS 150600Z 17013KT 24/16 A2985 RMK A01 T02440162  RH  063%=      5-min Rain = 0
KSYS 150605Z 17014G19KT 24/16 A2984 RMK A01 T02430162  RH  064%=      5-min Rain = 0
KSYS 150610Z 17014G19KT 24/16 A2984 RMK A01 T02430162  RH  064%=      5-min Rain = 0
KSYS 150615Z 18012G17KT 24/16 A2985 RMK A01 T02430163  RH  064%=      5-min Rain = 0
KSYS 150620Z 18012KT 24/16 A2985 RMK A01 T02430162  RH  064%=      5-min Rain = 0
KSYS 150625Z 18013KT 24/16 A2985 RMK A01 T02430163  RH  064%=      5-min Rain = 0
KSYS 150630Z 18011G18KT 24/16 A2985 RMK A01 T02430163  RH  064%=      5-min Rain = 0
KSYS 150635Z 18013G18KT 24/16 A2985 RMK A01 T02420163  RH  064%=      5-min Rain = 0
KSYS 150640Z 18011KT 24/16 A2984 RMK A01 T02420163  RH  064%=      5-min Rain = 0
KSYS 150645Z 18011G16KT 24/16 A2984 RMK A01 T02410163  RH  065%=      5-min Rain = 0
KSYS 150650Z 18011KT 24/16 A2984 RMK A01 T02410163  RH  065%=      5-min Rain = 0
KSYS 150655Z 18010G15KT 24/16 A2984 RMK A01 T02400163  RH  065%=      5-min Rain = 0
KSYS 150700Z 18011KT 24/16 A2984 RMK A01 T02390163  RH  066%=      5-min Rain = 0
KSYS 150705Z 18011G16KT 24/16 A2984 RMK A01 T02380163  RH  066%=      5-min Rain = 0
KSYS 150710Z 17010KT 24/16 A2984 RMK A01 T02370164  RH  067%=      5-min Rain = 0
KSYS 150715Z 18011KT 24/16 A2984 RMK A01 T02350164  RH  067%=      5-min Rain = 0
KSYS 150720Z 18010G15KT 24/16 A2984 RMK A01 T02350164  RH  068%=      5-min Rain = 0
KSYS 150725Z 18010G15KT 23/16 A2984 RMK A01 T02340164  RH  068%=      5-min Rain = 0
KSYS 150730Z 18010KT 23/16 A2984 RMK A01 T02330164  RH  068%=      5-min Rain = 0
KSYS 150735Z 18010KT 23/16 A2984 RMK A01 T02330164  RH  068%=      5-min Rain = 0
KSYS 150740Z 18009KT 23/16 A2984 RMK A01 T02330164  RH  068%=      5-min Rain = 0
KSYS 150745Z 19008KT 23/16 A2984 RMK A01 T02330164  RH  068%=      5-min Rain = 0
KSYS 150750Z 19008KT 23/16 A2984 RMK A01 T02320164  RH  069%=      5-min Rain = 0
KSYS 150755Z 19008KT 23/16 A2984 RMK A01 T02300164  RH  069%=      5-min Rain = 0
KSYS 150800Z 19008KT 23/16 A2984 RMK A01 T02290164  RH  070%=      5-min Rain = 0
KSYS 150805Z 18008KT 23/16 A2984 RMK A01 T02280164  RH  071%=      5-min Rain = 0
KSYS 150810Z 19007KT 23/16 A2984 RMK A01 T02260164  RH  072%=      5-min Rain = 0
KSYS 150815Z 19007KT 23/16 A2984 RMK A01 T02250164  RH  072%=      5-min Rain = 0
KSYS 150820Z 19007KT 22/16 A2983 RMK A01 T02230164  RH  073%=      5-min Rain = 0
KSYS 150825Z 19007KT 22/16 A2983 RMK A01 T02220164  RH  073%=      5-min Rain = 0
KSYS 150830Z 19008KT 22/16 A2983 RMK A01 T02220164  RH  073%=      5-min Rain = 0
KSYS 150835Z 19007KT 22/16 A2983 RMK A01 T02220164  RH  073%=      5-min Rain = 0
KSYS 150840Z 19008KT 22/16 A2983 RMK A01 T02220163  RH  073%=      5-min Rain = 0
KSYS 150845Z 19008KT 22/16 A2983 RMK A01 T02210163  RH  073%=      5-min Rain = 0
KSYS 150850Z 18009KT 22/16 A2982 RMK A01 T02200163  RH  074%=      5-min Rain = 0
KSYS 150855Z 18010KT 22/16 A2982 RMK A01 T02200163  RH  074%=      5-min Rain = 0
KSYS 150900Z 18010KT 22/16 A2982 RMK A01 T02190163  RH  074%=      5-min Rain = 0
KSYS 150905Z 18010KT 22/16 A2981 RMK A01 T02190162  RH  074%=      5-min Rain = 0
KSYS 150910Z 18011KT 22/16 A2981 RMK A01 T02210162  RH  072%=      5-min Rain = 0
KSYS 150915Z 18011KT 22/16 A2981 RMK A01 T02230162  RH  071%=      5-min Rain = 0
KSYS 150920Z 18011KT 22/16 A2981 RMK A01 T02240161  RH  071%=      5-min Rain = 0
KSYS 150925Z 17011KT 23/16 A298 RMK A01 T02250161  RH  070%=      5-min Rain = 0
KSYS 150930Z 17011KT 23/16 A298 RMK A01 T02260161  RH  070%=      5-min Rain = 0
KSYS 150935Z 17011KT 23/16 A298 RMK A01 T02270161  RH  070%=      5-min Rain = 0
KSYS 150940Z 17011KT 23/16 A298 RMK A01 T02260161  RH  070%=      5-min Rain = 0
KSYS 150945Z 18010KT 23/16 A298 RMK A01 T02250161  RH  070%=      5-min Rain = 0
KSYS 150950Z 18009KT 23/16 A298 RMK A01 T02250161  RH  071%=      5-min Rain = 0
KSYS 150955Z 18008KT 22/16 A2981 RMK A01 T02240161  RH  071%=      5-min Rain = 0
KSYS 151000Z 19008KT 22/16 A2981 RMK A01 T02240161  RH  071%=      5-min Rain = 0
KSYS 151005Z 21008KT 22/16 A2982 RMK A01 T02230161  RH  071%=      5-min Rain = 0
KSYS 151010Z 20008KT 22/16 A2982 RMK A01 T02210161  RH  072%=      5-min Rain = 0
KSYS 151015Z 20009KT 22/16 A2982 RMK A01 T02200161  RH  073%=      5-min Rain = 0
KSYS 151020Z 20008KT 22/16 A2982 RMK A01 T02190161  RH  073%=      5-min Rain = 0
KSYS 151025Z 19008KT 22/16 A2981 RMK A01 T02190162  RH  073%=      5-min Rain = 0
KSYS 151030Z 20007KT 22/16 A2982 RMK A01 T02180162  RH  074%=      5-min Rain = 0
KSYS 151035Z 19007KT 22/16 A2982 RMK A01 T02170161  RH  074%=      5-min Rain = 0
KSYS 151040Z 20008KT 22/16 A2982 RMK A01 T02170161  RH  074%=      5-min Rain = 0
KSYS 151045Z 20009KT 22/16 A2982 RMK A01 T02160161  RH  074%=      5-min Rain = 0
KSYS 151050Z 19010KT 22/16 A2982 RMK A01 T02160161  RH  075%=      5-min Rain = 0
KSYS 151055Z 18011KT 22/16 A2982 RMK A01 T02150162  RH  075%=      5-min Rain = 0
KSYS 151100Z 18012KT 22/16 A2982 RMK A01 T02150162  RH  075%=      5-min Rain = 0
KSYS 151105Z 18012KT 22/16 A2982 RMK A01 T02150162  RH  075%=      5-min Rain = 0
KSYS 151110Z 18012KT 21/16 A2982 RMK A01 T02140161  RH  076%=      5-min Rain = 0
KSYS 151115Z 18012KT 21/16 A2982 RMK A01 T02130161  RH  076%=      5-min Rain = 0
KSYS 151120Z 18011G16KT 21/16 A2982 RMK A01 T02130161  RH  076%=      5-min Rain = 0
KSYS 151125Z 18012G17KT 21/16 A2982 RMK A01 T02130161  RH  076%=      5-min Rain = 0
KSYS 151130Z 18013KT 21/16 A2982 RMK A01 T02140161  RH  076%=      5-min Rain = 0
KSYS 151135Z 18012G18KT 22/16 A2982 RMK A01 T02150161  RH  075%=      5-min Rain = 0
KSYS 151140Z 18012G17KT 22/16 A2982 RMK A01 T02150161  RH  075%=      5-min Rain = 0
KSYS 151145Z 18012G17KT 22/16 A2982 RMK A01 T02160160  RH  074%=      5-min Rain = 0
KSYS 151150Z 18012KT 22/16 A2983 RMK A01 T02160160  RH  074%=      5-min Rain = 0
KSYS 151155Z 18012G17KT 22/16 A2982 RMK A01 T02160160  RH  074%=      5-min Rain = 0
KSYS 151200Z 18012KT 22/16 A2983 RMK A01 T02170159  RH  073%=      5-min Rain = 0
KSYS 151205Z 18013KT 22/16 A2983 RMK A01 T02180159  RH  073%=      5-min Rain = 0
KSYS 151210Z 19010KT 22/16 A2983 RMK A01 T02180159  RH  072%=      5-min Rain = 0
KSYS 151215Z 20010KT 22/16 A2984 RMK A01 T02180159  RH  072%=      5-min Rain = 0
KSYS 151220Z 19009KT 22/16 A2984 RMK A01 T02190159  RH  072%=      5-min Rain = 0
KSYS 151225Z 18010G15KT 22/16 A2983 RMK A01 T02190160  RH  072%=      5-min Rain = 0
KSYS 151230Z 18011KT 22/16 A2983 RMK A01 T02180159  RH  073%=      5-min Rain = 0
KSYS 151235Z 18011G16KT 22/16 A2983 RMK A01 T02190159  RH  072%=      5-min Rain = 0
KSYS 151240Z 18011G16KT 22/16 A2983 RMK A01 T02210160  RH  072%=      5-min Rain = 0
KSYS 151245Z 18012KT 22/16 A2983 RMK A01 T02230159  RH  071%=      5-min Rain = 0
KSYS 151250Z 18011G16KT 23/16 A2982 RMK A01 T02250160  RH  070%=      5-min Rain = 0
KSYS 151255Z 18013G19KT 23/16 A2982 RMK A01 T02260160  RH  069%=      5-min Rain = 0
KSYS 151300Z 18012G19KT 23/16 A2982 RMK A01 T02280160  RH  069%=      5-min Rain = 0
KSYS 151305Z 18013KT 23/16 A2982 RMK A01 T02300160  RH  068%=      5-min Rain = 0
KSYS 151310Z 18014G21KT 23/16 A2983 RMK A01 T02320159  RH  067%=      5-min Rain = 0
KSYS 151315Z 19012G18KT 23/16 A2983 RMK A01 T02330160  RH  067%=      5-min Rain = 0
KSYS 151320Z 19014G19KT 24/16 A2983 RMK A01 T02350160  RH  066%=      5-min Rain = 0
KSYS 151325Z 19014G20KT 24/16 A2983 RMK A01 T02360159  RH  065%=      5-min Rain = 0
KSYS 151330Z 20015G22KT 24/16 A2983 RMK A01 T02380160  RH  064%=      5-min Rain = 0
KSYS 151335Z 19015G20KT 24/16 A2983 RMK A01 T02390159  RH  064%=      5-min Rain = 0
KSYS 151340Z 19013G20KT 24/16 A2983 RMK A01 T02410161  RH  064%=      5-min Rain = 0
KSYS 151345Z 19016G22KT 24/16 A2983 RMK A01 T02420160  RH  063%=      5-min Rain = 0
KSYS 151350Z 19017G23KT 24/16 A2983 RMK A01 T02430160  RH  063%=      5-min Rain = 0
KSYS 151355Z 19017G23KT 24/16 A2983 RMK A01 T02440160  RH  062%=      5-min Rain = 0
KSYS 151400Z 19017G22KT 25/16 A2983 RMK A01 T02450161  RH  062%=      5-min Rain = 0
KSYS 151405Z 19017G24KT 25/16 A2983 RMK A01 T02470160  RH  061%=      5-min Rain = 0
KSYS 151410Z 19016G22KT 25/16 A2984 RMK A01 T02490161  RH  061%=      5-min Rain = 0
KSYS 151415Z 19017G24KT 25/16 A2983 RMK A01 T02500161  RH  060%=      5-min Rain = 0
KSYS 151420Z 19017G23KT 25/16 A2983 RMK A01 T02520162  RH  060%=      5-min Rain = 0
KSYS 151425Z 19014G21KT 25/16 A2983 RMK A01 T02540163  RH  060%=      5-min Rain = 0
KSYS 151430Z 19014G20KT 26/16 A2984 RMK A01 T02570164  RH  059%=      5-min Rain = 0
KSYS 151435Z 19015G22KT 26/16 A2983 RMK A01 T02580164  RH  059%=      5-min Rain = 0
KSYS 151440Z 20016G22KT 26/16 A2983 RMK A01 T02600163  RH  058%=      5-min Rain = 0
KSYS 151445Z 19014G21KT 26/17 A2984 RMK A01 T02610165  RH  058%=      5-min Rain = 0
KSYS 151450Z 19015G24KT 26/16 A2984 RMK A01 T02630162  RH  057%=      5-min Rain = 0
KSYS 151455Z 19015G23KT 26/16 A2983 RMK A01 T02640163  RH  057%=      5-min Rain = 0
KSYS 151500Z 19017G24KT 27/16 A2983 RMK A01 T02660162  RH  056%=      5-min Rain = 0
KSYS 151505Z 19017G23KT 27/16 A2983 RMK A01 T02650163  RH  056%=      5-min Rain = 0
KSYS 151510Z 19017G24KT 27/16 A2983 RMK A01 T02670164  RH  056%=      5-min Rain = 0
KSYS 151515Z 19016G21KT 27/17 A2983 RMK A01 T02680165  RH  056%=      5-min Rain = 0
KSYS 151520Z 19016G21KT 27/17 A2983 RMK A01 T02710166  RH  055%=      5-min Rain = 0
KSYS 151525Z 19015G21KT 27/16 A2982 RMK A01 T02730164  RH  054%=      5-min Rain = 0
KSYS 151530Z 19016G22KT 27/16 A2983 RMK A01 T02740163  RH  053%=      5-min Rain = 0
KSYS 151535Z 19014G21KT 28/17 A2983 RMK A01 T02780166  RH  053%=      5-min Rain = 0
KSYS 151540Z 19013G18KT 28/17 A2982 RMK A01 T02820168  RH  052%=      5-min Rain = 0
KSYS 151545Z 20015G20KT 29/16 A2982 RMK A01 T02850163  RH  050%=      5-min Rain = 0
KSYS 151550Z 20015G21KT 29/16 A2982 RMK A01 T02860160  RH  049%=      5-min Rain = 0
KSYS 151555Z 20016G23KT 29/16 A2982 RMK A01 T02880157  RH  047%=      5-min Rain = 0
KSYS 151600Z 20013G19KT 29/16 A2983 RMK A01 T02910157  RH  046%=      5-min Rain = 0
KSYS 151605Z 20016G21KT 29/15 A2982 RMK A01 T02940153  RH  044%=      5-min Rain = 0
KSYS 151610Z 21015G20KT 30/15 A2982 RMK A01 T02950153  RH  044%=      5-min Rain = 0
KSYS 151615Z 21016G23KT 30/15 A2982 RMK A01 T02960149  RH  043%=      5-min Rain = 0
KSYS 151620Z 21014G19KT 30/15 A2982 RMK A01 T02990152  RH  043%=      5-min Rain = 0
KSYS 151625Z 21012G20KT 30/15 A2982 RMK A01 T03020153  RH  042%=      5-min Rain = 0
KSYS 151630Z 20015G20KT 30/15 A2982 RMK A01 T03040148  RH  040%=      5-min Rain = 0
KSYS 151635Z 20013G19KT 31/15 A2982 RMK A01 T03050150  RH  041%=      5-min Rain = 0
KSYS 151640Z 21012G17KT 31/15 A2983 RMK A01 T03070152  RH  041%=      5-min Rain = 0
KSYS 151645Z 20012G20KT 31/15 A2983 RMK A01 T03120153  RH  040%=      5-min Rain = 0
KSYS 151650Z 20012G17KT 31/15 A2982 RMK A01 T03130152  RH  040%=      5-min Rain = 0
KSYS 151655Z 20012G18KT 32/15 A2982 RMK A01 T03160151  RH  039%=      5-min Rain = 0
KSYS 151700Z 20014KT 32/15 A2982 RMK A01 T03170148  RH  038%=      5-min Rain = 0
KSYS 151705Z 21012G19KT 32/15 A2982 RMK A01 T03180148  RH  037%=      5-min Rain = 0
KSYS 151710Z 21012G18KT 32/15 A2982 RMK A01 T03210148  RH  037%=      5-min Rain = 0
KSYS 151715Z 20012G19KT 32/15 A2982 RMK A01 T03230147  RH  036%=      5-min Rain = 0
KSYS 151720Z 20012KT 33/15 A2982 RMK A01 T03260145  RH  035%=      5-min Rain = 0
KSYS 151725Z 19011KT 33/15 A2982 RMK A01 T03280145  RH  035%=      5-min Rain = 0
KSYS 151730Z 21010G15KT 33/15 A2982 RMK A01 T03300145  RH  034%=      5-min Rain = 0
KSYS 151735Z 20010KT 33/14 A2982 RMK A01 T03340144  RH  033%=      5-min Rain = 0
KSYS 151740Z 19010G15KT 34/14 A2982 RMK A01 T03350143  RH  033%=      5-min Rain = 0
KSYS 151745Z 21011KT 34/14 A2982 RMK A01 T03370137  RH  031%=      5-min Rain = 0
KSYS 151750Z 20011G16KT 34/14 A2982 RMK A01 T03370138  RH  031%=      5-min Rain = 0
KSYS 151755Z 21010KT 34/14 A2982 RMK A01 T03380137  RH  031%=      5-min Rain = 0
KSYS 151800Z 19010KT 34/14 A2981 RMK A01 T03400141  RH  031%=      5-min Rain = 0
KSYS 151805Z 22007G13KT 34/14 A2981 RMK A01 T03430142  RH  031%=      5-min Rain = 0
KSYS 151810Z 20008KT 35/14 A2981 RMK A01 T03470144  RH  031%=      5-min Rain = 0
KSYS 151815Z 21009KT 35/14 A2981 RMK A01 T03500139  RH  030%=      5-min Rain = 0
KSYS 151820Z 19009KT 35/14 A2981 RMK A01 T03490139  RH  030%=      5-min Rain = 0
KSYS 151825Z 20009G15KT 35/14 A2981 RMK A01 T03490139  RH  030%=      5-min Rain = 0
KSYS 151830Z 20009G14KT 35/14 A2981 RMK A01 T03500137  RH  029%=      5-min Rain = 0
KSYS 151835Z 19008KT 35/14 A2981 RMK A01 T03520139  RH  029%=      5-min Rain = 0
KSYS 151840Z 21007KT 35/14 A298 RMK A01 T03540138  RH  029%=      5-min Rain = 0
KSYS 151845Z 19007KT 36/14 A298 RMK A01 T03570138  RH  028%=      5-min Rain = 0
KSYS 151850Z 20007G13KT 36/14 A298 RMK A01 T03560135  RH  028%=      5-min Rain = 0
KSYS 151855Z 20007G12KT 36/14 A298 RMK A01 T03580138  RH  028%=      5-min Rain = 0
KSYS 151900Z 19009KT 36/13 A298 RMK A01 T03570132  RH  027%=      5-min Rain = 0
KSYS 151905Z 18005KT 36/14 A298 RMK A01 T03590135  RH  027%=      5-min Rain = 0
KSYS 151910Z 20006G11KT 36/14 A298 RMK A01 T03630142  RH  028%=      5-min Rain = 0
KSYS 151915Z 19008G13KT 37/13 A2979 RMK A01 T03650134  RH  026%=      5-min Rain = 0
KSYS 151920Z 19006G11KT 37/14 A2979 RMK A01 T03660136  RH  026%=      5-min Rain = 0
KSYS 151925Z 18007G12KT 37/13 A2979 RMK A01 T03670133  RH  026%=      5-min Rain = 0
KSYS 151930Z 17006KT 37/13 A2979 RMK A01 T03660132  RH  026%=      5-min Rain = 0
KSYS 151935Z 18007G12KT 36/13 A2979 RMK A01 T03640133  RH  026%=      5-min Rain = 0
KSYS 151940Z 20007KT 36/13 A2979 RMK A01 T03600134  RH  027%=      5-min Rain = 0
KSYS 151945Z 18008KT 36/13 A2979 RMK A01 T03610132  RH  026%=      5-min Rain = 0
KSYS 151950Z 18007KT 36/13 A2979 RMK A01 T03630129  RH  026%=      5-min Rain = 0
KSYS 151955Z 18008G13KT 36/13 A2978 RMK A01 T03640129  RH  026%=      5-min Rain = 0
KSYS 152000Z 19006KT 37/13 A2978 RMK A01 T03650132  RH  026%=      5-min Rain = 0
KSYS 152005Z 21003KT 36/13 A2978 RMK A01 T03640125  RH  025%=      5-min Rain = 0
KSYS 152010Z 22006G11KT 37/13 A2978 RMK A01 T03650127  RH  025%=      5-min Rain = 0
KSYS 152015Z 24005KT 36/12 A2978 RMK A01 T03580124  RH  025%=      5-min Rain = 0
KSYS 152020Z 19004KT 36/13 A2978 RMK A01 T03550127  RH  026%=      5-min Rain = 0
KSYS 152025Z 19005G10KT 36/12 A2978 RMK A01 T03550122  RH  026%=      5-min Rain = 0
KSYS 152030Z 19005G11KT 36/13 A2978 RMK A01 T03550128  RH  027%=      5-min Rain = 0
KSYS 152035Z 18005KT 36/12 A2978 RMK A01 T03580117  RH  024%=      5-min Rain = 0
KSYS 152040Z 18004KT 36/11 A2978 RMK A01 T03630113  RH  023%=      5-min Rain = 0
KSYS 152045Z 18002KT 37/11 A2977 RMK A01 T03650111  RH  022%=      5-min Rain = 0
KSYS 152050Z 19003KT 36/11 A2977 RMK A01 T03640110  RH  022%=      5-min Rain = 0
KSYS 152055Z 15005KT 36/12 A2977 RMK A01 T03600118  RH  024%=      5-min Rain = 0
KSYS 152100Z 14004KT 36/12 A2977 RMK A01 T03560118  RH  025%=      5-min Rain = 0
KSYS 152105Z 17005KT 35/12 A2977 RMK A01 T03530116  RH  025%=      5-min Rain = 0
KSYS 152110Z 16005KT 35/12 A2977 RMK A01 T03530116  RH  025%=      5-min Rain = 0
KSYS 152115Z 16005KT 37/12 A2977 RMK A01 T03650115  RH  023%=      5-min Rain = 0
KSYS 152120Z 19004KT 37/11 A2976 RMK A01 T03730107  RH  021%=      5-min Rain = 0
KSYS 152125Z 19003KT 38/11 A2976 RMK A01 T03770106  RH  020%=      5-min Rain = 0
KSYS 152130Z 15005G11KT 38/11 A2976 RMK A01 T03790110  RH  021%=      5-min Rain = 0
KSYS 152135Z 16008KT 38/11 A2976 RMK A01 T03760112  RH  021%=      5-min Rain = 0
KSYS 152140Z 17007KT 38/10 A2975 RMK A01 T03800103  RH  020%=      5-min Rain = 0
KSYS 152145Z 15008G13KT 38/10 A2975 RMK A01 T03780098  RH  019%=      5-min Rain = 0
KSYS 152150Z 16009KT 37/10 A2975 RMK A01 T03670095  RH  020%=      5-min Rain = 0
KSYS 152155Z 17008KT 36/10 A2975 RMK A01 T03590102  RH  022%=      5-min Rain = 0
KSYS 152200Z 16007KT 36/11 A2975 RMK A01 T03560105  RH  023%=      5-min Rain = 0
KSYS 152205Z 16006KT 36/11 A2975 RMK A01 T03560111  RH  024%=      5-min Rain = 0
KSYS 152210Z 16006KT 36/11 A2974 RMK A01 T03600107  RH  022%=      5-min Rain = 0
KSYS 152215Z 15006KT 37/11 A2974 RMK A01 T03670111  RH  022%=      5-min Rain = 0
KSYS 152220Z 15008KT 37/11 A2974 RMK A01 T03700110  RH  022%=      5-min Rain = 0
KSYS 152225Z 16008KT 37/11 A2974 RMK A01 T03670106  RH  021%=      5-min Rain = 0
KSYS 152230Z 16009KT 36/11 A2974 RMK A01 T03600113  RH  023%=      5-min Rain = 0
KSYS 152235Z 17007KT 35/12 A2974 RMK A01 T03510121  RH  026%=      5-min Rain = 0
KSYS 152240Z 17006KT 35/12 A2974 RMK A01 T03450123  RH  027%=      5-min Rain = 0
KSYS 152245Z 17006KT 34/13 A2974 RMK A01 T03420125  RH  028%=      5-min Rain = 0
KSYS 152250Z 16009KT 34/12 A2973 RMK A01 T03400121  RH  028%=      5-min Rain = 0
KSYS 152255Z 16012G19KT 34/13 A2973 RMK A01 T03390134  RH  030%=      5-min Rain = 0
KSYS 152300Z 15015G21KT 34/12 A2973 RMK A01 T03390124  RH  028%=      5-min Rain = 0
KSYS 152305Z 15013G18KT 34/15 A2973 RMK A01 T03400150  RH  033%=      5-min Rain = 0
KSYS 152310Z 17014G21KT 35/16 A2973 RMK A01 T03450156  RH  034%=      5-min Rain = 0
KSYS 152315Z 17014G20KT 35/16 A2973 RMK A01 T03500158  RH  033%=      5-min Rain = 0
KSYS 152320Z 16014G19KT 35/16 A2972 RMK A01 T03470159  RH  034%=      5-min Rain = 0
KSYS 152325Z 16014KT 34/16 A2972 RMK A01 T03420164  RH  036%=      5-min Rain = 0
KSYS 152330Z 16011G19KT 34/17 A2972 RMK A01 T03360174  RH  040%=      5-min Rain = 0
KSYS 152335Z 16014G20KT 34/18 A2971 RMK A01 T03360175  RH  040%=      5-min Rain = 0
KSYS 152340Z 17014KT 34/18 A2971 RMK A01 T03360178  RH  041%=      5-min Rain = 0
KSYS 152345Z 17016G23KT 34/18 A2971 RMK A01 T03360179  RH  042%=      5-min Rain = 0
KSYS 152350Z 16016G21KT 33/18 A2972 RMK A01 T03330179  RH  042%=      5-min Rain = 0
KSYS 152355Z 16016G21KT 33/18 A2972 RMK A01 T03310179  RH  043%=      5-min Rain = 0
KSYS 160000Z 16015G21KT 33/18 A2972 RMK A01 T03290177  RH  043%=      5-min Rain = 0
KSYS 160005Z 15016G21KT 33/18 A2972 RMK A01 T03290178  RH  043%=      5-min Rain = 0
KSYS 160010Z 15014G21KT 33/18 A2972 RMK A01 T03260179  RH  044%=      5-min Rain = 0
KSYS 160015Z 15013G19KT 33/18 A2973 RMK A01 T03270181  RH  044%=      5-min Rain = 0
KSYS 160020Z 15014G19KT 33/18 A2973 RMK A01 T03250184  RH  046%=      5-min Rain = 0
KSYS 160025Z 15015G21KT 32/18 A2972 RMK A01 T03240184  RH  046%=      5-min Rain = 0
KSYS 160030Z 15013G19KT 33/18 A2972 RMK A01 T03280184  RH  045%=      5-min Rain = 0
KSYS 160035Z 16014G19KT 33/18 A2972 RMK A01 T03290182  RH  044%=      5-min Rain = 0
KSYS 160040Z 16017G24KT 33/18 A2973 RMK A01 T03260181  RH  044%=      5-min Rain = 0
KSYS 160045Z 15016G21KT 32/19 A2973 RMK A01 T03220185  RH  047%=      5-min Rain = 0
KSYS 160050Z 15019G27KT 32/19 A2974 RMK A01 T03180186  RH  048%=      5-min Rain = 0
KSYS 160055Z 15018G24KT 32/19 A2974 RMK A01 T03150186  RH  049%=      5-min Rain = 0
KSYS 160100Z 16018G24KT 31/19 A2974 RMK A01 T03130185  RH  049%=      5-min Rain = 0
KSYS 160105Z 15016G23KT 31/19 A2974 RMK A01 T03110186  RH  050%=      5-min Rain = 0
KSYS 160110Z 16017G23KT 31/19 A2974 RMK A01 T03100186  RH  051%=      5-min Rain = 0
KSYS 160115Z 16016G22KT 31/19 A2975 RMK A01 T03090187  RH  051%=      5-min Rain = 0
KSYS 160120Z 16016G21KT 31/19 A2975 RMK A01 T03070187  RH  052%=      5-min Rain = 0
KSYS 160125Z 16016G21KT 31/19 A2975 RMK A01 T03060187  RH  052%=      5-min Rain = 0
KSYS 160130Z 15016G21KT 31/19 A2975 RMK A01 T03050187  RH  052%=      5-min Rain = 0
KSYS 160135Z 16018G25KT 30/19 A2975 RMK A01 T03040186  RH  052%=      5-min Rain = 0
KSYS 160140Z 16017G22KT 30/19 A2975 RMK A01 T03040186  RH  052%=      5-min Rain = 0
KSYS 160145Z 16017G23KT 30/19 A2975 RMK A01 T03030187  RH  053%=      5-min Rain = 0
KSYS 160150Z 17015G22KT 30/19 A2975 RMK A01 T03020187  RH  053%=      5-min Rain = 0
KSYS 160155Z 17015G23KT 30/19 A2975 RMK A01 T03010187  RH  053%=      5-min Rain = 0
KSYS 160200Z 17014KT 30/19 A2975 RMK A01 T03000187  RH  054%=      5-min Rain = 0
KSYS 160205Z 17012G18KT 30/19 A2975 RMK A01 T02990187  RH  054%=      5-min Rain = 0
KSYS 160210Z 16012KT 30/19 A2975 RMK A01 T02980187  RH  054%=      5-min Rain = 0
KSYS 160215Z 16011KT 30/19 A2975 RMK A01 T02960189  RH  056%=      5-min Rain = 0
KSYS 160220Z 16012G19KT 29/19 A2975 RMK A01 T02930190  RH  057%=      5-min Rain = 0
KSYS 160225Z 17013G19KT 29/19 A2975 RMK A01 T02930189  RH  057%=      5-min Rain = 0
KSYS 160230Z 17016G24KT 29/19 A2975 RMK A01 T02930187  RH  056%=      5-min Rain = 0
KSYS 160235Z 17014KT 29/19 A2975 RMK A01 T02940187  RH  055%=      5-min Rain = 0
KSYS 160240Z 16013G19KT 29/19 A2975 RMK A01 T02920189  RH  057%=      5-min Rain = 0
KSYS 160245Z 16013KT 29/19 A2975 RMK A01 T02900187  RH  057%=      5-min Rain = 0
KSYS 160250Z 17013G19KT 29/19 A2975 RMK A01 T02890187  RH  057%=      5-min Rain = 0
KSYS 160255Z 16013G18KT 29/19 A2975 RMK A01 T02880186  RH  057%=      5-min Rain = 0
KSYS 160300Z 17015G21KT 29/18 A2975 RMK A01 T02870184  RH  057%=      5-min Rain = 0
KSYS 160305Z 17016G24KT 29/18 A2974 RMK A01 T02860182  RH  056%=      5-min Rain = 0
KSYS 160310Z 18015G20KT 28/18 A2974 RMK A01 T02840180  RH  056%=      5-min Rain = 0
KSYS 160315Z 18014KT 28/18 A2975 RMK A01 T02810180  RH  057%=      5-min Rain = 0
KSYS 160320Z 18012G17KT 28/18 A2975 RMK A01 T02780180  RH  058%=      5-min Rain = 0
KSYS 160325Z 19010G15KT 28/18 A2975 RMK A01 T02770179  RH  058%=      5-min Rain = 0
KSYS 160330Z 18010KT 28/18 A2976 RMK A01 T02750178  RH  059%=      5-min Rain = 0
KSYS 160335Z 18008KT 27/18 A2976 RMK A01 T02720176  RH  059%=      5-min Rain = 0
KSYS 160340Z 18008KT 27/17 A2977 RMK A01 T02700174  RH  059%=      5-min Rain = 0
KSYS 160345Z 17007G12KT 27/17 A2978 RMK A01 T02680172  RH  058%=      5-min Rain = 0
KSYS 160350Z 18005KT 27/17 A2978 RMK A01 T02670171  RH  059%=      5-min Rain = 0
KSYS 160355Z 21004KT 27/17 A2979 RMK A01 T02650171  RH  059%=      5-min Rain = 0
KSYS 160400Z 22005KT 26/17 A298 RMK A01 T02640170  RH  059%=      5-min Rain = 0
KSYS 160405Z 22005KT 26/17 A298 RMK A01 T02630169  RH  059%=      5-min Rain = 0
KSYS 160410Z 29004KT 26/17 A298 RMK A01 T02610170  RH  060%=      5-min Rain = 0
KSYS 160415Z 27003KT 26/17 A298 RMK A01 T02560173  RH  063%=      5-min Rain = 0
KSYS 160420Z 24006KT 25/17 A298 RMK A01 T02530170  RH  063%=      5-min Rain = 0
KSYS 160425Z 23007G12KT 26/17 A298 RMK A01 T02560165  RH  060%=      5-min Rain = 0
KSYS 160430Z 18009G14KT 26/16 A2981 RMK A01 T02630161  RH  056%=      5-min Rain = 0
KSYS 160435Z 17008KT 27/16 A2981 RMK A01 T02670159  RH  054%=      5-min Rain = 0
KSYS 160440Z 18006KT 27/16 A2981 RMK A01 T02650163  RH  056%=      5-min Rain = 0
KSYS 160445Z 15003KT 26/17 A2982 RMK A01 T02600165  RH  058%=      5-min Rain = 0
KSYS 160450Z 35003KT 25/17 A2983 RMK A01 T02540165  RH  061%=      5-min Rain = 0
KSYS 160455Z 36008G13KT 25/17 A2984 RMK A01 T02470166  RH  063%=      5-min Rain = 0

Page generated in 0.0128 seconds.